RJAW/IWO METAR and TAF weather

Enter ICAO airport designator
Station Type Date Time Source
RJAW METAR 2019/04/25 07:00 UTC NOAA

RJAW 250700Z 24008KT 210V270 9999 FEW020 27/23 Q1013 RMK 1CU020 A2992


Station Type Date Time Source
RJAW Decoded METAR 2019/04/25 07:00 UTC NOAA

Iwojima, Japan (RJAW) 24-47N 141-19E 116M
Apr 25, 2019 - 03:00 AM EDT / 2019.04.25 0700 UTC
Wind: from the WSW (240 degrees) at 9 MPH (8 KT) (direction variable):0
Visibility: greater than 7 mile(s):0
Sky conditions: mostly clear
Temperature: 80 F (27 C)
Dew Point: 73 F (23 C)
Relative Humidity: 78%
Pressure (altimeter): 29.91 in. Hg (1013 hPa)
ob: RJAW 250700Z 24008KT 210V270 9999 FEW020 27/23 Q1013 RMK 1CU020 A2992
cycle: 7

Station Type Date Time Source
RJAW TAF UTC NOAA

Error!

Example: see airport list